createdAt,value
2022-11-09T00:01:46.227Z,17.03
2022-11-09T00:04:15.489Z,17.53
2022-11-09T00:06:42.249Z,17.60
2022-11-09T00:09:09.838Z,17.90
2022-11-09T00:11:37.884Z,17.30
2022-11-09T00:14:04.657Z,17.13
2022-11-09T00:16:31.395Z,17.73
2022-11-09T00:18:58.748Z,17.07
2022-11-09T00:21:27.943Z,17.77
2022-11-09T00:23:56.893Z,18.77
2022-11-09T00:26:23.731Z,17.50
2022-11-09T00:28:50.716Z,18.17
2022-11-09T00:31:21.467Z,18.67
2022-11-09T00:33:49.672Z,17.93
2022-11-09T00:36:19.346Z,17.70
2022-11-09T00:38:51.832Z,18.40
2022-11-09T00:41:18.735Z,18.20
2022-11-09T00:43:47.641Z,18.60
2022-11-09T00:46:14.594Z,17.13
2022-11-09T00:48:43.635Z,17.57
2022-11-09T00:51:10.547Z,18.50
2022-11-09T00:53:42.877Z,17.80
2022-11-09T00:56:13.350Z,18.57
2022-11-09T00:58:41.029Z,18.10
2022-11-09T01:01:12.400Z,18.97
2022-11-09T01:03:39.268Z,19.77
2022-11-09T01:06:08.808Z,18.07
2022-11-09T01:08:35.761Z,18.37
2022-11-09T01:11:06.734Z,18.47
2022-11-09T01:13:33.450Z,18.67
2022-11-09T01:16:00.197Z,19.13
2022-11-09T01:18:26.897Z,18.50
2022-11-09T01:20:53.694Z,19.13
2022-11-09T01:23:21.521Z,17.93
2022-11-09T01:25:48.322Z,17.97
2022-11-09T01:28:15.040Z,19.40
2022-11-09T01:30:44.968Z,18.13
2022-11-09T01:33:11.995Z,18.57
2022-11-09T01:35:41.930Z,18.63
2022-11-09T01:38:08.935Z,18.70
2022-11-09T01:40:39.217Z,18.40
2022-11-09T01:43:07.541Z,19.67
2022-11-09T01:45:36.838Z,18.60
2022-11-09T01:48:11.808Z,18.93
2022-11-09T01:50:40.485Z,20.03
2022-11-09T01:53:09.360Z,18.53
2022-11-09T01:55:38.290Z,19.03
2022-11-09T01:58:10.046Z,19.60
2022-11-09T02:00:39.024Z,19.53
2022-11-09T02:03:15.822Z,19.37
2022-11-09T02:05:44.724Z,19.40
2022-11-09T02:08:12.805Z,19.97
2022-11-09T02:10:46.268Z,20.20
2022-11-09T02:13:13.850Z,19.37
2022-11-09T02:15:45.444Z,20.33
2022-11-09T02:18:12.723Z,19.20
2022-11-09T02:20:54.832Z,19.30
2022-11-09T02:23:21.902Z,19.67
2022-11-09T02:25:53.579Z,19.73
2022-11-09T02:28:24.959Z,19.83
2022-11-09T02:30:52.521Z,20.77
2022-11-09T02:33:19.557Z,20.33
2022-11-09T02:35:46.450Z,20.67
2022-11-09T02:38:15.726Z,20.27
2022-11-09T02:40:47.019Z,19.80
2022-11-09T02:43:16.361Z,21.30
2022-11-09T02:45:43.161Z,19.67
2022-11-09T02:48:09.952Z,19.33
2022-11-09T02:50:38.862Z,20.73
2022-11-09T02:53:05.650Z,19.83
2022-11-09T02:55:33.527Z,20.43
2022-11-09T02:58:00.314Z,20.67
2022-11-09T03:00:27.021Z,20.87
2022-11-09T03:02:56.211Z,20.87
2022-11-09T03:05:23.311Z,20.83
2022-11-09T03:07:50.133Z,21.10
2022-11-09T03:10:19.156Z,20.87
2022-11-09T03:12:45.835Z,20.63
2022-11-09T03:15:12.605Z,20.30
2022-11-09T03:17:41.538Z,20.77
2022-11-09T03:20:08.974Z,21.20
2022-11-09T03:22:38.347Z,21.10
2022-11-09T03:25:07.829Z,20.97
2022-11-09T03:27:34.599Z,21.20
2022-11-09T03:30:03.884Z,21.13
2022-11-09T03:32:30.586Z,21.57
2022-11-09T03:34:59.753Z,21.60
2022-11-09T03:37:26.535Z,21.53
2022-11-09T03:39:53.260Z,21.37
2022-11-09T03:42:22.190Z,22.33
2022-11-09T03:44:48.933Z,21.43
2022-11-09T03:47:17.792Z,21.20
2022-11-09T03:49:44.549Z,21.60
2022-11-09T03:52:11.345Z,22.80
2022-11-09T03:54:38.061Z,21.37
2022-11-09T03:57:04.813Z,21.67
2022-11-09T03:59:31.866Z,21.60
2022-11-09T04:02:00.815Z,22.10
2022-11-09T04:04:27.631Z,22.47
2022-11-09T04:06:57.334Z,22.40
2022-11-09T04:09:24.039Z,21.93
2022-11-09T04:11:50.801Z,21.80
2022-11-09T04:14:17.528Z,20.97
2022-11-09T04:16:46.461Z,22.03
2022-11-09T04:19:15.653Z,21.33
2022-11-09T04:21:42.455Z,21.30
2022-11-09T04:24:13.881Z,21.70
2022-11-09T04:26:40.571Z,21.47
2022-11-09T04:29:07.299Z,23.17
2022-11-09T04:31:36.266Z,21.87
2022-11-09T04:34:07.962Z,23.10
2022-11-09T04:36:36.922Z,22.40
2022-11-09T04:39:03.728Z,22.53
2022-11-09T04:41:30.430Z,22.43
2022-11-09T04:44:00.001Z,22.53
2022-11-09T04:46:29.096Z,22.33
2022-11-09T04:48:58.208Z,22.67
2022-11-09T04:51:27.149Z,22.97
2022-11-09T04:53:56.578Z,22.83
2022-11-09T04:56:25.823Z,23.73
2022-11-09T04:58:52.645Z,22.83
2022-11-09T05:01:21.860Z,21.97
2022-11-09T05:03:50.882Z,23.00
2022-11-09T05:06:33.070Z,21.47
2022-11-09T05:09:06.760Z,22.97
2022-11-09T05:11:34.324Z,23.03
2022-11-09T05:14:01.235Z,23.10
2022-11-09T05:16:31.111Z,23.90
2022-11-09T05:18:57.833Z,23.20
2022-11-09T05:21:24.568Z,23.57
2022-11-09T05:24:00.547Z,23.80
2022-11-09T05:26:31.280Z,22.43
2022-11-09T05:28:59.286Z,22.80
2022-11-09T05:31:28.654Z,22.77
2022-11-09T05:34:00.109Z,24.73
2022-11-09T05:36:27.971Z,23.40
2022-11-09T05:38:54.764Z,22.97
2022-11-09T05:41:23.660Z,24.10
2022-11-09T05:43:52.621Z,24.53
2022-11-09T05:46:21.467Z,24.87
2022-11-09T05:48:50.417Z,22.60
2022-11-09T05:51:17.245Z,24.20
2022-11-09T05:53:46.653Z,24.13
2022-11-09T05:56:14.272Z,23.93
2022-11-09T05:58:43.596Z,24.87
2022-11-09T06:01:12.141Z,23.87
2022-11-09T06:03:39.084Z,23.10
2022-11-09T06:06:08.884Z,24.93
2022-11-09T06:08:36.162Z,23.73
2022-11-09T06:11:04.700Z,24.50
2022-11-09T06:13:31.535Z,24.23
2022-11-09T06:16:01.315Z,24.87
2022-11-09T06:18:29.718Z,25.23
2022-11-09T06:20:58.282Z,24.27
2022-11-09T06:23:29.313Z,23.23
2022-11-09T06:26:03.265Z,24.03
2022-11-09T06:28:30.046Z,25.53
2022-11-09T06:31:00.513Z,25.13
2022-11-09T06:33:27.516Z,26.10
2022-11-09T06:35:56.460Z,24.53
2022-11-09T06:38:23.944Z,24.17
2022-11-09T06:40:56.606Z,24.93
2022-11-09T06:43:23.705Z,26.23
2022-11-09T06:45:50.659Z,25.33
2022-11-09T06:48:17.333Z,25.20
2022-11-09T06:50:46.517Z,26.27
2022-11-09T06:53:16.659Z,26.10
2022-11-09T06:55:47.371Z,26.03
2022-11-09T06:58:17.221Z,27.93
2022-11-09T07:00:44.287Z,26.10
2022-11-09T07:03:17.762Z,25.40
2022-11-09T07:05:44.847Z,25.67
2022-11-09T07:08:14.188Z,25.73
2022-11-09T07:10:43.247Z,26.63
2022-11-09T07:13:10.152Z,26.03
2022-11-09T07:15:39.477Z,26.37
2022-11-09T07:18:07.753Z,27.13
2022-11-09T07:20:36.599Z,27.00
2022-11-09T07:23:05.334Z,29.23
2022-11-09T07:25:32.769Z,28.63
2022-11-09T07:28:04.445Z,26.57
2022-11-09T07:30:31.210Z,26.43
2022-11-09T07:33:09.051Z,27.57
2022-11-09T07:35:36.670Z,27.20
2022-11-09T07:38:05.747Z,25.90
2022-11-09T07:40:32.436Z,26.87
2022-11-09T07:43:00.219Z,27.57
2022-11-09T07:45:29.680Z,27.27
2022-11-09T07:47:59.939Z,25.53
2022-11-09T07:50:27.059Z,27.10
2022-11-09T07:52:56.074Z,26.73
2022-11-09T07:55:23.298Z,26.50
2022-11-09T07:57:56.862Z,27.40
2022-11-09T08:00:24.095Z,27.27
2022-11-09T08:02:53.364Z,27.13
2022-11-09T08:05:20.243Z,27.73
2022-11-09T08:07:47.075Z,28.23
2022-11-09T08:10:14.066Z,27.37
2022-11-09T08:12:40.765Z,27.50
2022-11-09T08:15:10.598Z,27.70
2022-11-09T08:17:41.784Z,29.27
2022-11-09T08:20:13.497Z,27.97
2022-11-09T08:22:44.006Z,27.93
2022-11-09T08:25:13.140Z,27.77
2022-11-09T08:27:42.615Z,27.70
2022-11-09T08:30:14.576Z,26.40
2022-11-09T08:32:42.124Z,27.47
2022-11-09T08:35:10.262Z,28.67
2022-11-09T08:37:37.971Z,28.33
2022-11-09T08:40:07.833Z,27.80
2022-11-09T08:42:34.580Z,28.07
2022-11-09T08:45:08.685Z,28.03
2022-11-09T08:47:35.407Z,28.87
2022-11-09T08:50:04.359Z,27.83
2022-11-09T08:52:31.237Z,27.90
2022-11-09T08:55:00.367Z,27.93
2022-11-09T08:57:35.141Z,28.17
2022-11-09T09:00:04.298Z,27.97
2022-11-09T09:02:30.997Z,29.53
2022-11-09T09:04:57.695Z,28.80
2022-11-09T09:07:24.468Z,27.77
2022-11-09T09:09:51.237Z,27.43
2022-11-09T09:12:18.878Z,28.20
2022-11-09T09:14:45.603Z,28.50
2022-11-09T09:17:12.332Z,28.50
2022-11-09T09:19:39.070Z,29.53
2022-11-09T09:22:07.373Z,28.43
2022-11-09T09:24:35.288Z,26.77
2022-11-09T09:27:02.909Z,26.87
2022-11-09T09:29:29.614Z,27.33
2022-11-09T09:31:56.366Z,27.50
2022-11-09T09:34:23.113Z,28.63
2022-11-09T09:36:55.114Z,28.43
2022-11-09T09:39:21.865Z,25.60
2022-11-09T09:42:03.045Z,27.63
2022-11-09T09:44:40.059Z,26.73
2022-11-09T09:47:15.470Z,28.00
2022-11-09T09:50:04.331Z,26.43
2022-11-09T09:53:04.767Z,26.77
2022-11-09T09:55:42.399Z,26.40
2022-11-09T09:58:12.175Z,26.07
2022-11-09T10:00:41.136Z,26.23
2022-11-09T10:03:14.568Z,27.50
2022-11-09T10:06:03.872Z,27.83
2022-11-09T10:08:55.165Z,27.97
2022-11-09T10:11:28.090Z,26.73
2022-11-09T10:14:13.813Z,27.17
2022-11-09T10:17:07.862Z,27.30
2022-11-09T10:19:58.988Z,26.37
2022-11-09T10:22:37.683Z,27.10
2022-11-09T10:28:01.614Z,26.03
2022-11-09T10:30:30.878Z,26.00
2022-11-09T10:33:06.361Z,26.67
2022-11-09T10:35:38.342Z,25.80
2022-11-09T10:38:13.153Z,26.77
2022-11-09T10:40:51.665Z,26.97
2022-11-09T10:43:18.445Z,26.03
2022-11-09T10:45:45.605Z,25.67
2022-11-09T10:48:15.482Z,25.93
2022-11-09T10:50:48.501Z,26.27
2022-11-09T10:53:22.066Z,27.40
2022-11-09T10:56:21.364Z,25.97
2022-11-09T10:58:51.826Z,25.23
2022-11-09T11:01:25.450Z,25.40
2022-11-09T11:03:55.523Z,26.43
2022-11-09T11:06:22.195Z,25.40
2022-11-09T11:08:57.863Z,25.13
2022-11-09T11:11:37.454Z,25.40
2022-11-09T11:14:22.692Z,25.47
2022-11-09T11:16:51.051Z,26.47
2022-11-09T11:19:36.679Z,25.70
2022-11-09T11:22:12.178Z,25.03
2022-11-09T11:24:45.028Z,30.07
2022-11-09T11:27:16.973Z,25.33
2022-11-09T11:29:46.647Z,25.90
2022-11-09T11:32:17.387Z,26.13
2022-11-09T11:34:59.754Z,24.73
2022-11-09T11:37:43.520Z,24.47
2022-11-09T11:40:24.014Z,24.27
2022-11-09T11:43:02.864Z,24.10
2022-11-09T11:45:41.291Z,23.87
2022-11-09T11:48:21.891Z,24.30
2022-11-09T11:51:02.511Z,25.17
2022-11-09T11:53:43.579Z,23.93
2022-11-09T11:56:34.883Z,24.10
2022-11-09T11:59:18.077Z,25.33
2022-11-09T12:01:51.763Z,25.13
2022-11-09T12:04:35.701Z,25.30
2022-11-09T12:07:28.594Z,24.53
2022-11-09T12:10:10.466Z,24.60
2022-11-09T12:12:52.091Z,23.17
2022-11-09T12:15:24.320Z,22.83
2022-11-09T12:17:54.184Z,22.70
2022-11-09T12:20:40.729Z,22.97
2022-11-09T12:23:33.616Z,23.60
2022-11-09T12:26:24.541Z,23.30
2022-11-09T12:29:17.976Z,24.53
2022-11-09T12:32:05.814Z,23.13
2022-11-09T12:34:57.760Z,24.30
2022-11-09T12:37:29.401Z,23.80
2022-11-09T12:40:04.929Z,22.80
2022-11-09T12:42:42.488Z,23.17
2022-11-09T12:45:09.488Z,22.47
2022-11-09T12:47:40.233Z,22.50
2022-11-09T12:50:11.294Z,22.50
2022-11-09T12:52:40.619Z,24.00
2022-11-09T12:55:07.656Z,22.07
2022-11-09T12:57:39.359Z,22.30
2022-11-09T13:00:14.460Z,21.60
2022-11-09T13:02:55.126Z,22.23
2022-11-09T13:05:37.905Z,20.73
2022-11-09T13:08:15.416Z,22.77
2022-11-09T13:10:49.352Z,21.80
2022-11-09T13:13:22.586Z,22.40
2022-11-09T13:16:33.670Z,23.93
2022-11-09T13:19:02.791Z,24.87
2022-11-09T13:21:29.447Z,23.33
2022-11-09T13:24:02.185Z,23.00
2022-11-09T13:26:32.874Z,22.17
2022-11-09T13:29:22.845Z,24.47
2022-11-09T13:32:10.612Z,24.83
2022-11-09T13:34:47.263Z,23.70
2022-11-09T13:37:39.288Z,24.87
2022-11-09T13:40:30.903Z,23.77
2022-11-09T13:43:02.813Z,24.43
2022-11-09T13:45:32.358Z,23.27
2022-11-09T13:48:03.778Z,25.70
2022-11-09T13:50:31.418Z,23.00
2022-11-09T13:53:01.508Z,23.23
2022-11-09T13:55:38.136Z,23.73
2022-11-09T13:58:27.937Z,23.67
2022-11-09T14:00:57.553Z,23.87
2022-11-09T14:03:29.030Z,22.10
2022-11-09T14:06:02.171Z,24.10
2022-11-09T14:08:40.020Z,22.93
2022-11-09T14:11:25.731Z,22.87
2022-11-09T14:14:15.413Z,24.20
2022-11-09T14:16:57.119Z,23.07
2022-11-09T14:19:54.293Z,23.87
2022-11-09T14:22:21.555Z,24.17
2022-11-09T14:24:48.330Z,23.47
2022-11-09T14:27:19.190Z,22.37
2022-11-09T14:29:50.186Z,22.17
2022-11-09T14:32:31.235Z,22.97
2022-11-09T14:35:20.015Z,22.67
2022-11-09T14:37:47.432Z,21.80
2022-11-09T14:40:19.038Z,22.53
2022-11-09T14:43:01.902Z,21.80
2022-11-09T14:45:28.701Z,23.00
2022-11-09T14:47:57.808Z,24.53
2022-11-09T14:50:35.651Z,23.03
2022-11-09T14:53:03.152Z,24.50
2022-11-09T14:55:39.857Z,23.33
2022-11-09T14:58:09.371Z,22.13
2022-11-09T15:00:43.184Z,23.47
2022-11-09T15:03:22.775Z,23.80
2022-11-09T15:05:49.559Z,22.97
2022-11-09T15:08:26.966Z,22.43
2022-11-09T15:10:56.298Z,25.00
2022-11-09T15:13:38.022Z,24.63
2022-11-09T15:16:07.510Z,23.60
2022-11-09T15:18:35.692Z,24.03
2022-11-09T15:21:18.745Z,26.40
2022-11-09T15:23:50.259Z,22.87
2022-11-09T15:26:34.620Z,24.57
2022-11-09T15:29:04.687Z,24.20
2022-11-09T15:31:31.616Z,25.17
2022-11-09T15:33:58.429Z,24.93
2022-11-09T15:36:30.868Z,23.80
2022-11-09T15:39:18.153Z,23.87
2022-11-09T15:41:47.080Z,23.90
2022-11-09T15:44:17.253Z,24.67
2022-11-09T15:46:49.822Z,24.17
2022-11-09T15:49:29.421Z,25.70
2022-11-09T15:51:56.217Z,24.80
2022-11-09T15:54:23.483Z,26.93
2022-11-09T15:56:52.963Z,26.73
2022-11-09T15:59:22.147Z,26.57
2022-11-09T16:01:49.071Z,26.13
2022-11-09T16:04:15.909Z,27.00
2022-11-09T16:06:46.376Z,26.07
2022-11-09T16:09:16.343Z,25.63
2022-11-09T16:11:43.043Z,25.97
2022-11-09T16:14:09.749Z,24.73
2022-11-09T16:16:36.531Z,25.23
2022-11-09T16:19:08.181Z,24.90
2022-11-09T16:21:35.213Z,25.23
2022-11-09T16:24:01.936Z,24.77
2022-11-09T16:26:28.704Z,24.47
2022-11-09T16:28:55.647Z,26.47
2022-11-09T16:31:48.351Z,27.00
2022-11-09T16:34:09.136Z,24.67
2022-11-09T16:36:38.863Z,26.20
2022-11-09T16:39:09.415Z,27.43
2022-11-09T16:41:40.886Z,26.73
2022-11-09T16:44:09.819Z,26.53
2022-11-09T16:46:36.525Z,27.37
2022-11-09T16:49:03.556Z,27.97
2022-11-09T16:51:30.377Z,27.40
2022-11-09T16:53:59.252Z,26.87
2022-11-09T16:56:28.157Z,27.43
2022-11-09T16:58:57.244Z,27.87
2022-11-09T17:01:24.153Z,27.20
2022-11-09T17:03:50.926Z,28.10
2022-11-09T17:06:17.813Z,28.03
2022-11-09T17:08:44.508Z,28.23
2022-11-09T17:11:13.318Z,26.77
2022-11-09T17:13:42.187Z,27.87
2022-11-09T17:16:12.473Z,28.27
2022-11-09T17:18:39.529Z,28.47
2022-11-09T17:21:14.316Z,28.73
2022-11-09T17:23:41.962Z,28.50
2022-11-09T17:26:08.981Z,27.93
2022-11-09T17:28:40.059Z,28.10
2022-11-09T17:31:15.179Z,28.93
2022-11-09T17:33:41.979Z,27.97
2022-11-09T17:36:14.740Z,30.13
2022-11-09T17:38:41.713Z,28.63
2022-11-09T17:41:09.245Z,28.87
2022-11-09T17:43:37.130Z,28.00
2022-11-09T17:46:08.378Z,30.13
2022-11-09T17:48:35.628Z,29.60
2022-11-09T17:51:02.548Z,29.30
2022-11-09T17:53:32.116Z,29.07
2022-11-09T17:56:00.120Z,29.20
2022-11-09T17:58:26.826Z,30.63
2022-11-09T18:00:53.628Z,28.33
2022-11-09T18:03:20.496Z,30.13
2022-11-09T18:05:47.382Z,28.63
2022-11-09T18:08:16.820Z,28.90
2022-11-09T18:10:48.323Z,30.23
2022-11-09T18:13:15.024Z,29.07
2022-11-09T18:15:43.995Z,29.17
2022-11-09T18:18:10.697Z,30.20
2022-11-09T18:20:38.662Z,30.13
2022-11-09T18:23:05.405Z,29.70
2022-11-09T18:25:36.738Z,29.10
2022-11-09T18:28:03.574Z,28.47
2022-11-09T18:30:30.500Z,28.30
2022-11-09T18:32:59.903Z,29.53
2022-11-09T18:35:26.666Z,28.57
2022-11-09T18:37:55.738Z,30.83
2022-11-09T18:40:24.969Z,30.17
2022-11-09T18:42:51.746Z,29.40
2022-11-09T18:45:21.834Z,28.67
2022-11-09T18:47:49.660Z,28.27
2022-11-09T18:50:19.657Z,29.30
2022-11-09T18:52:46.346Z,30.03
2022-11-09T18:55:15.559Z,28.67
2022-11-09T18:57:42.343Z,31.17
2022-11-09T19:00:09.738Z,29.27
2022-11-09T19:02:36.784Z,29.67
2022-11-09T19:05:06.836Z,31.50
2022-11-09T19:07:33.550Z,29.23
2022-11-09T19:10:00.266Z,30.20
2022-11-09T19:12:32.574Z,29.67
2022-11-09T19:14:59.336Z,30.10
2022-11-09T19:17:26.145Z,29.80
2022-11-09T19:19:55.065Z,30.13
2022-11-09T19:22:21.881Z,29.60
2022-11-09T19:24:48.869Z,30.87
2022-11-09T19:27:15.670Z,31.80
2022-11-09T19:29:42.453Z,30.50
2022-11-09T19:32:09.241Z,30.17
2022-11-09T19:34:35.951Z,31.37
2022-11-09T19:37:02.658Z,29.20
2022-11-09T19:39:34.753Z,30.87
2022-11-09T19:42:02.813Z,31.87
2022-11-09T19:44:29.613Z,30.80
2022-11-09T19:46:56.440Z,32.43
2022-11-09T19:49:23.228Z,32.17
2022-11-09T19:51:49.956Z,30.40
2022-11-09T19:54:19.091Z,30.53
2022-11-09T19:56:45.822Z,31.07
2022-11-09T19:59:14.484Z,30.43
2022-11-09T20:01:41.734Z,30.53
2022-11-09T20:04:10.498Z,30.77
2022-11-09T20:06:39.766Z,31.67
2022-11-09T20:09:06.663Z,32.47
2022-11-09T20:11:51.764Z,31.77
2022-11-09T20:14:18.614Z,32.57
2022-11-09T20:16:48.506Z,30.87
2022-11-09T20:19:20.117Z,30.93
2022-11-09T20:21:46.828Z,31.90
2022-11-09T20:24:14.422Z,32.03
2022-11-09T20:26:44.085Z,31.43
2022-11-09T20:29:10.876Z,31.50
2022-11-09T20:31:37.644Z,31.87
2022-11-09T20:34:06.670Z,31.70
2022-11-09T20:36:36.492Z,32.13
2022-11-09T20:39:06.009Z,30.80
2022-11-09T20:41:33.359Z,31.97
2022-11-09T20:44:00.065Z,31.63
2022-11-09T20:46:28.947Z,33.33
2022-11-09T20:49:00.834Z,31.87
2022-11-09T20:51:28.764Z,32.47
2022-11-09T20:54:01.117Z,32.57
2022-11-09T20:56:34.846Z,31.07
2022-11-09T20:59:03.782Z,31.70
2022-11-09T21:01:33.213Z,31.43
2022-11-09T21:04:00.155Z,32.13
2022-11-09T21:06:26.955Z,32.60
2022-11-09T21:08:57.117Z,32.73
2022-11-09T21:11:24.008Z,44.23
2022-11-09T21:13:51.370Z,33.13
2022-11-09T21:16:18.567Z,33.00
2022-11-09T21:18:47.600Z,30.73
2022-11-09T21:21:15.503Z,31.80
2022-11-09T21:24:00.789Z,31.17
2022-11-09T21:26:46.426Z,31.73
2022-11-09T21:29:37.352Z,31.07
2022-11-09T21:32:06.830Z,33.00
2022-11-09T21:34:40.682Z,31.87
2022-11-09T21:37:09.652Z,31.70
2022-11-09T21:39:36.364Z,31.97
2022-11-09T21:42:03.623Z,30.50
2022-11-09T21:44:33.030Z,32.03
2022-11-09T21:47:00.108Z,32.13
2022-11-09T21:49:26.893Z,32.50
2022-11-09T21:51:56.108Z,31.50
2022-11-09T21:54:22.839Z,31.43
2022-11-09T21:56:49.779Z,30.83
2022-11-09T21:59:16.620Z,32.27
2022-11-09T22:01:44.036Z,31.47
2022-11-09T22:04:10.793Z,31.23
2022-11-09T22:06:39.027Z,33.00
2022-11-09T22:09:06.587Z,33.07
2022-11-09T22:11:51.608Z,31.97
2022-11-09T22:14:38.889Z,32.13
2022-11-09T22:17:08.628Z,32.70
2022-11-09T22:19:56.914Z,31.60
2022-11-09T22:22:23.655Z,31.47
2022-11-09T22:24:50.374Z,32.00
2022-11-09T22:27:17.062Z,30.97
2022-11-09T22:29:43.805Z,31.70
2022-11-09T22:32:10.486Z,32.17
2022-11-09T22:34:37.199Z,31.90
2022-11-09T22:37:04.277Z,31.80
2022-11-09T22:39:31.046Z,32.37
2022-11-09T22:42:02.147Z,31.80
2022-11-09T22:44:28.829Z,32.33
2022-11-09T22:46:55.688Z,31.20
2022-11-09T22:49:25.065Z,30.43
2022-11-09T22:51:53.345Z,31.50
2022-11-09T22:54:23.215Z,31.40
2022-11-09T22:56:49.936Z,32.20
2022-11-09T22:59:16.629Z,31.57
2022-11-09T23:01:43.450Z,31.90
2022-11-09T23:04:10.638Z,31.67
2022-11-09T23:06:40.005Z,31.70
2022-11-09T23:09:09.173Z,31.67
2022-11-09T23:11:35.897Z,31.07
2022-11-09T23:14:02.649Z,31.83
2022-11-09T23:16:33.948Z,32.73
2022-11-09T23:19:00.677Z,31.10
2022-11-09T23:21:29.287Z,30.40
2022-11-09T23:24:04.822Z,31.13
2022-11-09T23:26:32.664Z,30.70
2022-11-09T23:29:01.913Z,30.40
2022-11-09T23:31:33.224Z,31.30
2022-11-09T23:34:07.363Z,31.27
2022-11-09T23:36:36.532Z,30.50
2022-11-09T23:39:05.712Z,30.87
2022-11-09T23:41:35.029Z,30.63
2022-11-09T23:44:01.775Z,31.10
2022-11-09T23:46:30.999Z,30.97
2022-11-09T23:48:57.739Z,30.03
2022-11-09T23:51:24.717Z,30.77
2022-11-09T23:53:53.716Z,32.47
2022-11-09T23:56:21.218Z,33.43
2022-11-09T23:58:51.542Z,31.83
